createdAt,value
2022-10-19T00:01:31.513Z,103340.34
2022-10-19T00:03:59.960Z,103341.56
2022-10-19T00:06:30.338Z,103344.06
2022-10-19T00:09:00.144Z,103351.50
2022-10-19T00:11:28.359Z,103342.88
2022-10-19T00:13:55.778Z,103337.13
2022-10-19T00:16:23.541Z,103333.63
2022-10-19T00:18:50.247Z,103327.97
2022-10-19T00:21:19.010Z,103332.41
2022-10-19T00:23:46.437Z,103330.03
2022-10-19T00:26:13.820Z,103334.50
2022-10-19T00:28:41.048Z,103336.16
2022-10-19T00:31:11.011Z,103331.13
2022-10-19T00:33:37.863Z,103331.72
2022-10-19T00:36:05.706Z,103336.31
2022-10-19T00:38:32.322Z,103334.59
2022-10-19T00:40:58.832Z,103335.72
2022-10-19T00:43:30.174Z,103342.91
2022-10-19T00:45:56.665Z,103332.09
2022-10-19T00:48:28.033Z,103334.50
2022-10-19T00:50:57.281Z,103341.69
2022-10-19T00:53:27.095Z,103335.34
2022-10-19T00:55:54.294Z,103336.28
2022-10-19T00:58:20.856Z,103332.44
2022-10-19T01:00:47.746Z,103328.97
2022-10-19T01:03:14.362Z,103324.13
2022-10-19T01:05:41.369Z,103329.41
2022-10-19T01:08:10.179Z,103344.09
2022-10-19T01:11:01.356Z,103337.97
2022-10-19T01:13:55.430Z,103332.91
2022-10-19T01:16:26.831Z,103342.28
2022-10-19T01:19:05.905Z,103332.31
2022-10-19T01:21:43.570Z,103343.13
2022-10-19T01:24:58.151Z,103341.94
2022-10-19T01:28:10.019Z,103348.91
2022-10-19T01:30:55.930Z,103336.91
2022-10-19T01:33:47.379Z,103338.94
2022-10-19T01:36:20.657Z,103332.06
2022-10-19T01:39:12.151Z,103338.31
2022-10-19T01:41:49.352Z,103334.72
2022-10-19T01:44:36.853Z,103325.59
2022-10-19T01:47:08.990Z,103318.13
2022-10-19T01:49:41.274Z,103316.69
2022-10-19T01:52:11.553Z,103319.59
2022-10-19T01:54:43.030Z,103323.78
2022-10-19T01:57:13.098Z,103315.59
2022-10-19T01:59:40.035Z,103319.41
2022-10-19T02:02:10.266Z,103311.97
2022-10-19T02:04:38.243Z,103305.34
2022-10-19T02:07:08.245Z,103298.75
2022-10-19T02:09:35.492Z,103292.75
2022-10-19T02:12:05.836Z,103289.78
2022-10-19T02:14:37.711Z,103283.41
2022-10-19T02:17:16.962Z,103284.25
2022-10-19T02:19:43.730Z,103280.28
2022-10-19T02:22:11.596Z,103283.03
2022-10-19T02:24:38.118Z,103282.81
2022-10-19T02:27:06.584Z,103271.63
2022-10-19T02:29:34.432Z,103267.56
2022-10-19T02:32:01.664Z,103267.06
2022-10-19T02:34:28.381Z,103260.09
2022-10-19T02:36:55.336Z,103253.00
2022-10-19T02:39:22.493Z,103255.03
2022-10-19T02:42:01.753Z,103249.13
2022-10-19T02:44:40.108Z,103255.63
2022-10-19T02:47:12.047Z,103240.88
2022-10-19T02:49:39.350Z,103246.28
2022-10-19T02:52:08.485Z,103240.25
2022-10-19T02:54:35.310Z,103244.81
2022-10-19T02:57:07.693Z,103240.38
2022-10-19T02:59:34.137Z,103236.63
2022-10-19T03:02:00.603Z,103228.13
2022-10-19T03:04:27.071Z,103228.00
2022-10-19T03:06:53.505Z,103229.06
2022-10-19T03:09:20.061Z,103222.06
2022-10-19T03:11:46.604Z,103225.31
2022-10-19T03:14:13.027Z,103218.94
2022-10-19T03:16:39.462Z,103213.66
2022-10-19T03:19:06.571Z,103218.81
2022-10-19T03:21:34.133Z,103218.94
2022-10-19T03:24:01.119Z,103233.13
2022-10-19T03:26:27.666Z,103238.28
2022-10-19T03:28:54.335Z,103233.59
2022-10-19T03:31:20.903Z,103230.22
2022-10-19T03:33:47.441Z,103225.97
2022-10-19T03:36:19.493Z,103225.16
2022-10-19T03:38:45.993Z,103215.78
2022-10-19T03:41:13.374Z,103212.75
2022-10-19T03:43:41.213Z,103222.38
2022-10-19T03:46:08.639Z,103214.22
2022-10-19T03:48:35.848Z,103214.22
2022-10-19T03:51:05.871Z,103215.44
2022-10-19T03:53:33.228Z,103223.84
2022-10-19T03:56:27.201Z,103223.09
2022-10-19T03:58:55.223Z,103221.88
2022-10-19T04:01:25.235Z,103225.50
2022-10-19T04:04:00.712Z,103226.56
2022-10-19T04:06:30.187Z,103219.63
2022-10-19T04:08:57.016Z,103222.13
2022-10-19T04:11:28.947Z,103227.69
2022-10-19T04:13:56.826Z,103215.66
2022-10-19T04:16:24.820Z,103217.84
2022-10-19T04:18:51.595Z,103218.69
2022-10-19T04:21:26.167Z,103216.44
2022-10-19T04:23:57.631Z,103200.78
2022-10-19T04:26:24.259Z,103203.06
2022-10-19T04:28:50.809Z,103211.22
2022-10-19T04:31:17.362Z,103196.97
2022-10-19T04:33:43.934Z,103201.78
2022-10-19T04:36:12.379Z,103203.84
2022-10-19T04:38:39.216Z,103210.66
2022-10-19T04:41:11.574Z,103213.56
2022-10-19T04:43:38.692Z,103209.47
2022-10-19T04:46:07.163Z,103216.00
2022-10-19T04:48:35.151Z,103219.00
2022-10-19T04:51:02.302Z,103211.19
2022-10-19T04:53:28.953Z,103215.25
2022-10-19T04:55:55.435Z,103213.81
2022-10-19T04:58:22.218Z,103214.78
2022-10-19T05:00:49.587Z,103206.13
2022-10-19T05:03:16.966Z,103207.59
2022-10-19T05:05:43.448Z,103203.97
2022-10-19T05:08:10.911Z,103213.72
2022-10-19T05:10:38.001Z,103200.59
2022-10-19T05:13:05.384Z,103199.78
2022-10-19T05:15:32.010Z,103190.75
2022-10-19T05:17:58.490Z,103187.75
2022-10-19T05:20:25.084Z,103193.41
2022-10-19T05:22:51.869Z,103196.31
2022-10-19T05:25:18.411Z,103188.84
2022-10-19T05:27:44.953Z,103187.19
2022-10-19T05:30:14.289Z,103186.59
2022-10-19T05:32:40.828Z,103179.97
2022-10-19T05:35:07.665Z,103176.13
2022-10-19T05:37:34.430Z,103161.94
2022-10-19T05:40:01.261Z,103157.13
2022-10-19T05:42:28.086Z,103166.88
2022-10-19T05:44:54.598Z,103158.84
2022-10-19T05:47:21.031Z,103161.34
2022-10-19T05:49:47.868Z,103158.09
2022-10-19T05:52:15.188Z,103158.09
2022-10-19T05:54:41.730Z,103156.53
2022-10-19T05:57:08.293Z,103142.13
2022-10-19T05:59:35.914Z,103160.00
2022-10-19T06:02:02.467Z,103159.78
2022-10-19T06:04:29.228Z,103154.63
2022-10-19T06:06:55.690Z,103154.50
2022-10-19T06:09:22.268Z,103158.94
2022-10-19T06:11:48.788Z,103151.25
2022-10-19T06:14:16.527Z,103152.06
2022-10-19T06:16:43.373Z,103145.72
2022-10-19T06:19:10.110Z,103151.97
2022-10-19T06:21:37.871Z,103136.00
2022-10-19T06:24:06.644Z,103150.63
2022-10-19T06:26:34.926Z,103166.00
2022-10-19T06:29:02.653Z,103157.47
2022-10-19T06:31:36.591Z,103167.06
2022-10-19T06:34:03.946Z,103158.53
2022-10-19T06:36:31.687Z,103157.91
2022-10-19T06:38:59.797Z,103150.81
2022-10-19T06:41:26.805Z,103149.72
2022-10-19T06:43:55.152Z,103142.63
2022-10-19T06:46:24.402Z,103145.63
2022-10-19T06:48:51.607Z,103147.53
2022-10-19T06:51:18.130Z,103138.88
2022-10-19T06:53:44.585Z,103145.16
2022-10-19T06:56:11.052Z,103143.81
2022-10-19T06:58:38.908Z,103143.94
2022-10-19T07:01:09.587Z,103149.81
2022-10-19T07:03:36.823Z,103145.09
2022-10-19T07:06:06.551Z,103133.44
2022-10-19T07:08:34.556Z,103137.50
2022-10-19T07:11:04.301Z,103131.72
2022-10-19T07:13:31.324Z,103120.88
2022-10-19T07:16:05.474Z,103125.88
2022-10-19T07:18:33.298Z,103122.25
2022-10-19T07:21:02.316Z,103121.97
2022-10-19T07:23:30.583Z,103125.22
2022-10-19T07:26:01.758Z,103121.22
2022-10-19T07:28:29.893Z,103118.03
2022-10-19T07:30:56.895Z,103117.28
2022-10-19T07:33:23.795Z,103110.22
2022-10-19T07:35:50.337Z,103120.44
2022-10-19T07:38:18.202Z,103121.59
2022-10-19T07:40:47.337Z,103122.88
2022-10-19T07:43:14.149Z,103130.16
2022-10-19T07:45:40.606Z,103133.56
2022-10-19T07:48:07.226Z,103127.03
2022-10-19T07:50:33.679Z,103132.38
2022-10-19T07:53:00.169Z,103139.06
2022-10-19T07:55:26.631Z,103141.47
2022-10-19T07:57:53.092Z,103142.28
2022-10-19T08:00:19.659Z,103132.25
2022-10-19T08:03:00.188Z,103136.19
2022-10-19T08:05:33.885Z,103132.97
2022-10-19T08:08:00.380Z,103119.06
2022-10-19T08:10:26.947Z,103130.91
2022-10-19T08:12:53.501Z,103124.09
2022-10-19T08:15:20.066Z,103112.41
2022-10-19T08:17:46.614Z,103101.78
2022-10-19T08:20:13.098Z,103112.41
2022-10-19T08:22:39.900Z,103101.38
2022-10-19T08:25:07.612Z,103115.63
2022-10-19T08:27:34.026Z,103109.06
2022-10-19T08:30:00.492Z,103105.00
2022-10-19T08:32:26.954Z,103101.91
2022-10-19T08:34:53.406Z,103093.16
2022-10-19T08:37:26.316Z,103089.50
2022-10-19T08:40:08.414Z,103105.16
2022-10-19T08:42:50.214Z,103111.84
2022-10-19T08:45:44.961Z,103109.31
2022-10-19T08:48:17.247Z,103108.06
2022-10-19T08:50:45.402Z,103120.22
2022-10-19T08:53:24.073Z,103109.47
2022-10-19T08:56:14.948Z,103103.19
2022-10-19T08:59:10.592Z,103098.44
2022-10-19T09:02:01.823Z,103091.44
2022-10-19T09:04:34.027Z,103081.94
2022-10-19T09:07:09.972Z,103062.94
2022-10-19T09:12:16.605Z,103073.91
2022-10-19T09:15:01.026Z,103076.84
2022-10-19T09:17:30.931Z,103088.22
2022-10-19T09:20:10.197Z,103087.81
2022-10-19T09:22:37.524Z,103085.72
2022-10-19T09:25:14.406Z,103088.81
2022-10-19T09:27:45.410Z,103086.50
2022-10-19T09:30:23.059Z,103080.66
2022-10-19T09:32:58.707Z,103078.53
2022-10-19T09:35:43.127Z,103076.53
2022-10-19T09:38:14.384Z,103060.56
2022-10-19T09:40:40.953Z,103068.97
2022-10-19T09:43:20.599Z,103066.19
2022-10-19T09:45:57.601Z,103065.31
2022-10-19T09:48:41.877Z,103049.84
2022-10-19T09:51:14.301Z,103056.53
2022-10-19T09:53:50.034Z,103053.28
2022-10-19T09:56:28.013Z,103048.28
2022-10-19T09:58:57.357Z,103044.28
2022-10-19T10:01:41.486Z,103051.66
2022-10-19T10:04:18.831Z,103046.81
2022-10-19T10:06:48.260Z,103039.28
2022-10-19T10:09:21.995Z,103038.81
2022-10-19T10:11:50.974Z,103028.59
2022-10-19T10:14:23.334Z,103034.63
2022-10-19T10:16:56.378Z,103029.47
2022-10-19T10:19:27.584Z,103024.97
2022-10-19T10:21:55.738Z,103022.09
2022-10-19T10:24:25.110Z,103024.13
2022-10-19T10:27:00.646Z,103025.75
2022-10-19T10:29:34.191Z,103026.31
2022-10-19T10:32:06.488Z,103008.66
2022-10-19T10:34:51.304Z,103008.97
2022-10-19T10:37:23.491Z,103009.94
2022-10-19T10:39:56.691Z,103009.56
2022-10-19T10:42:35.147Z,103008.13
2022-10-19T10:45:02.831Z,103009.22
2022-10-19T10:47:29.886Z,102999.56
2022-10-19T10:50:02.964Z,102982.59
2022-10-19T10:52:34.569Z,102986.41
2022-10-19T10:55:10.421Z,102981.16
2022-10-19T10:57:40.630Z,102976.66
2022-10-19T11:00:14.085Z,102968.75
2022-10-19T11:03:04.760Z,102957.25
2022-10-19T11:05:54.445Z,102953.03
2022-10-19T11:08:27.517Z,102946.16
2022-10-19T11:10:57.246Z,102935.16
2022-10-19T11:13:44.539Z,102929.66
2022-10-19T11:16:17.920Z,102922.50
2022-10-19T11:18:52.265Z,102908.25
2022-10-19T11:21:44.294Z,102912.88
2022-10-19T11:24:37.826Z,102919.09
2022-10-19T11:27:30.100Z,102904.16
2022-10-19T11:30:11.616Z,102884.19
2022-10-19T11:32:51.915Z,102880.28
2022-10-19T11:35:42.865Z,102878.00
2022-10-19T11:38:30.567Z,102864.63
2022-10-19T11:41:19.049Z,102860.41
2022-10-19T11:44:07.075Z,102868.75
2022-10-19T11:46:42.705Z,102875.38
2022-10-19T11:49:36.546Z,102871.16
2022-10-19T11:52:12.045Z,102852.91
2022-10-19T11:55:15.640Z,102854.19
2022-10-19T11:58:05.240Z,102845.06
2022-10-19T12:00:42.484Z,102841.41
2022-10-19T12:03:11.690Z,102839.91
2022-10-19T12:05:45.463Z,102830.81
2022-10-19T12:08:25.564Z,102821.00
2022-10-19T12:11:03.943Z,102812.47
2022-10-19T12:13:50.393Z,102820.09
2022-10-19T12:16:19.150Z,102819.91
2022-10-19T12:18:50.230Z,102822.22
2022-10-19T12:21:35.984Z,102819.69
2022-10-19T12:24:06.357Z,102818.19
2022-10-19T12:26:36.926Z,102810.59
2022-10-19T12:29:07.277Z,102812.03
2022-10-19T12:31:35.656Z,102812.94
2022-10-19T12:34:39.127Z,102803.59
2022-10-19T12:37:12.502Z,102800.22
2022-10-19T12:40:00.478Z,102800.44
2022-10-19T12:42:51.380Z,102793.19
2022-10-19T12:45:32.974Z,102769.88
2022-10-19T12:48:08.290Z,102770.34
2022-10-19T12:50:50.082Z,102762.63
2022-10-19T12:53:28.017Z,102752.56
2022-10-19T12:56:37.052Z,102763.13
2022-10-19T12:59:03.696Z,102758.38
2022-10-19T13:01:35.966Z,102751.50
2022-10-19T13:04:13.892Z,102750.34
2022-10-19T13:06:46.064Z,102737.56
2022-10-19T13:09:34.273Z,102740.44
2022-10-19T13:12:19.587Z,102730.47
2022-10-19T13:14:48.842Z,102741.72
2022-10-19T13:17:34.700Z,102725.91
2022-10-19T13:20:13.578Z,102727.44
2022-10-19T13:22:48.119Z,102719.13
2022-10-19T13:25:17.485Z,102715.63
2022-10-19T13:27:45.821Z,102715.38
2022-10-19T13:30:41.869Z,102715.16
2022-10-19T13:33:33.490Z,102709.56
2022-10-19T13:36:00.078Z,102700.44
2022-10-19T13:38:33.414Z,102696.94
2022-10-19T13:41:05.908Z,102688.44
2022-10-19T13:43:52.709Z,102679.53
2022-10-19T13:46:31.022Z,102670.72
2022-10-19T13:49:09.620Z,102671.78
2022-10-19T13:52:08.276Z,102662.56
2022-10-19T13:55:18.698Z,102652.06
2022-10-19T13:58:14.143Z,102648.72
2022-10-19T14:00:59.154Z,102645.56
2022-10-19T14:03:40.909Z,102642.00
2022-10-19T14:06:33.624Z,102642.97
2022-10-19T14:09:15.188Z,102640.81
2022-10-19T14:11:44.294Z,102623.00
2022-10-19T14:14:10.716Z,102631.63
2022-10-19T14:17:04.417Z,102626.69
2022-10-19T14:19:41.000Z,102615.94
2022-10-19T14:22:38.642Z,102617.25
2022-10-19T14:25:12.987Z,102610.31
2022-10-19T14:27:39.567Z,102616.00
2022-10-19T14:30:06.771Z,102606.81
2022-10-19T14:32:35.016Z,102602.47
2022-10-19T14:35:06.639Z,102601.78
2022-10-19T14:37:33.524Z,102601.06
2022-10-19T14:40:26.506Z,102605.53
2022-10-19T14:42:56.965Z,102585.69
2022-10-19T14:45:31.607Z,102582.84
2022-10-19T14:48:03.692Z,102575.91
2022-10-19T14:50:42.334Z,102572.06
2022-10-19T14:53:33.501Z,102569.56
2022-10-19T14:56:14.010Z,102541.09
2022-10-19T14:58:53.014Z,102537.59
2022-10-19T15:01:20.388Z,102533.66
2022-10-19T15:03:48.243Z,102526.50
2022-10-19T15:06:29.487Z,102520.38
2022-10-19T15:09:03.833Z,102522.69
2022-10-19T15:11:39.226Z,102510.38
2022-10-19T15:14:12.663Z,102508.56
2022-10-19T15:16:39.048Z,102507.88
2022-10-19T15:19:15.593Z,102503.41
2022-10-19T15:21:42.300Z,102485.47
2022-10-19T15:24:26.898Z,102486.63
2022-10-19T15:27:06.437Z,102487.09
2022-10-19T15:29:35.013Z,102469.81
2022-10-19T15:32:22.812Z,102462.44
2022-10-19T15:34:49.442Z,102468.84
2022-10-19T15:37:20.096Z,102470.31
2022-10-19T15:39:51.830Z,102455.75
2022-10-19T15:42:31.590Z,102472.19
2022-10-19T15:44:58.145Z,102473.94
2022-10-19T15:47:25.325Z,102463.63
2022-10-19T15:50:01.441Z,102456.75
2022-10-19T15:52:39.187Z,102444.16
2022-10-19T15:55:06.344Z,102450.84
2022-10-19T15:57:38.337Z,102435.41
2022-10-19T16:00:16.540Z,102434.91
2022-10-19T16:02:43.395Z,102431.41
2022-10-19T16:05:12.436Z,102432.91
2022-10-19T16:07:40.946Z,102427.94
2022-10-19T16:10:13.262Z,102419.81
2022-10-19T16:12:39.738Z,102420.66
2022-10-19T16:15:06.733Z,102409.69
2022-10-19T16:17:33.509Z,102408.53
2022-10-19T16:20:00.185Z,102406.22
2022-10-19T16:22:27.499Z,102394.22
2022-10-19T16:24:54.009Z,102405.41
2022-10-19T16:27:21.506Z,102412.72
2022-10-19T16:29:48.000Z,102412.72
2022-10-19T16:32:14.618Z,102419.06
2022-10-19T16:34:41.439Z,102426.22
2022-10-19T16:37:08.596Z,102430.91
2022-10-19T16:39:35.353Z,102427.09
2022-10-19T16:42:01.814Z,102410.97
2022-10-19T16:44:28.314Z,102417.00
2022-10-19T16:46:56.816Z,102420.31
2022-10-19T16:49:23.350Z,102426.47
2022-10-19T16:51:54.684Z,102416.50
2022-10-19T16:54:24.007Z,102428.63
2022-10-19T16:56:50.538Z,102424.47
2022-10-19T16:59:18.494Z,102430.94
2022-10-19T17:01:46.400Z,102424.28
2022-10-19T17:04:14.748Z,102442.91
2022-10-19T17:06:41.982Z,102423.47
2022-10-19T17:09:40.663Z,102437.13
2022-10-19T17:11:55.232Z,102434.13
2022-10-19T17:14:21.726Z,102438.09
2022-10-19T17:16:48.358Z,102421.63
2022-10-19T17:19:15.677Z,102414.00
2022-10-19T17:21:42.502Z,102406.84
2022-10-19T17:24:21.054Z,102389.41
2022-10-19T17:26:52.006Z,102388.56
2022-10-19T17:29:20.714Z,102395.88
2022-10-19T17:31:47.270Z,102402.84
2022-10-19T17:34:14.350Z,102407.31
2022-10-19T17:36:46.036Z,102411.16
2022-10-19T17:39:18.753Z,102398.69
2022-10-19T17:41:47.110Z,102398.19
2022-10-19T17:44:14.533Z,102383.88
2022-10-19T17:46:41.294Z,102378.91
2022-10-19T17:49:08.120Z,102377.91
2022-10-19T17:51:35.928Z,102373.91
2022-10-19T17:54:09.072Z,102385.53
2022-10-19T17:56:37.194Z,102380.41
2022-10-19T17:59:04.233Z,102393.69
2022-10-19T18:01:31.221Z,102393.19
2022-10-19T18:03:57.740Z,102398.16
2022-10-19T18:06:26.791Z,102390.53
2022-10-19T18:08:55.646Z,102387.69
2022-10-19T18:11:27.562Z,102391.66
2022-10-19T18:13:56.757Z,102388.50
2022-10-19T18:16:29.332Z,102397.81
2022-10-19T18:18:57.816Z,102387.84
2022-10-19T18:21:30.533Z,102374.22
2022-10-19T18:24:00.315Z,102363.59
2022-10-19T18:26:29.445Z,102372.56
2022-10-19T18:28:57.358Z,102353.63
2022-10-19T18:31:29.130Z,102361.75
2022-10-19T18:34:00.927Z,102362.25
2022-10-19T18:36:28.233Z,102361.63
2022-10-19T18:38:57.441Z,102362.59
2022-10-19T18:41:24.327Z,102352.97
2022-10-19T18:43:55.792Z,102355.13
2022-10-19T18:46:23.841Z,102346.81
2022-10-19T18:48:50.348Z,102336.00
2022-10-19T18:51:18.709Z,102339.34
2022-10-19T18:53:46.943Z,102332.84
2022-10-19T18:56:15.584Z,102346.16
2022-10-19T18:58:42.743Z,102334.38
2022-10-19T19:01:18.072Z,102325.91
2022-10-19T19:03:47.309Z,102323.75
2022-10-19T19:06:18.933Z,102325.56
2022-10-19T19:08:48.197Z,102312.91
2022-10-19T19:11:18.037Z,102315.09
2022-10-19T19:13:52.887Z,102311.94
2022-10-19T19:16:19.955Z,102307.31
2022-10-19T19:18:46.896Z,102291.38
2022-10-19T19:21:15.353Z,102297.31
2022-10-19T19:23:41.968Z,102292.19
2022-10-19T19:26:09.442Z,102295.34
2022-10-19T19:28:39.223Z,102289.53
2022-10-19T19:31:09.619Z,102280.53
2022-10-19T19:33:36.608Z,102281.88
2022-10-19T19:36:08.025Z,102276.41
2022-10-19T19:38:38.197Z,102276.91
2022-10-19T19:41:07.040Z,102265.78
2022-10-19T19:43:37.046Z,102263.28
2022-10-19T19:46:08.853Z,102249.84
2022-10-19T19:48:37.172Z,102250.66
2022-10-19T19:51:03.783Z,102259.94
2022-10-19T19:53:30.731Z,102246.84
2022-10-19T19:55:57.335Z,102242.34
2022-10-19T19:58:23.807Z,102236.69
2022-10-19T20:00:50.215Z,102237.38
2022-10-19T20:03:17.150Z,102240.38
2022-10-19T20:05:43.642Z,102230.25
2022-10-19T20:08:11.264Z,102225.44
2022-10-19T20:10:39.651Z,102209.50
2022-10-19T20:13:06.368Z,102214.66
2022-10-19T20:15:37.337Z,102217.13
2022-10-19T20:18:03.859Z,102208.66
2022-10-19T20:20:30.331Z,102204.69
2022-10-19T20:22:56.960Z,102200.69
2022-10-19T20:25:23.417Z,102192.56
2022-10-19T20:27:49.963Z,102181.81
2022-10-19T20:30:16.484Z,102185.28
2022-10-19T20:32:42.920Z,102182.13
2022-10-19T20:35:10.638Z,102179.97
2022-10-19T20:37:37.171Z,102186.47
2022-10-19T20:40:12.970Z,102178.63
2022-10-19T20:42:40.423Z,102177.81
2022-10-19T20:45:07.371Z,102173.47
2022-10-19T20:47:36.890Z,102171.66
2022-10-19T20:52:35.682Z,102183.94
2022-10-19T20:55:02.367Z,102175.34
2022-10-19T20:57:29.018Z,102181.63
2022-10-19T20:59:55.486Z,102180.31
2022-10-19T21:02:22.061Z,102172.69
2022-10-19T21:04:48.570Z,102169.69
2022-10-19T21:07:15.081Z,102165.19
2022-10-19T21:09:41.529Z,102168.34
2022-10-19T21:12:08.006Z,102167.03
2022-10-19T21:14:34.970Z,102175.81
2022-10-19T21:17:01.599Z,102169.00
2022-10-19T21:19:29.466Z,102178.97
2022-10-19T21:22:02.002Z,102163.34
2022-10-19T21:24:32.707Z,102167.84
2022-10-19T21:27:05.130Z,102167.03
2022-10-19T21:29:31.693Z,102167.19
2022-10-19T21:31:58.349Z,102156.25
2022-10-19T21:34:27.197Z,102150.09
2022-10-19T21:36:54.338Z,102149.25
2022-10-19T21:39:21.444Z,102148.13
2022-10-19T21:41:49.036Z,102139.66
2022-10-19T21:44:17.919Z,102143.78
2022-10-19T21:46:44.763Z,102144.97
2022-10-19T21:49:14.567Z,102144.94
2022-10-19T21:51:54.830Z,102138.44
2022-10-19T21:54:27.312Z,102134.31
2022-10-19T21:56:55.932Z,102133.47
2022-10-19T21:59:22.495Z,102124.84
2022-10-19T22:01:49.056Z,102123.88
2022-10-19T22:04:17.040Z,102123.69
2022-10-19T22:06:43.995Z,102110.44
2022-10-19T22:09:15.974Z,102111.75
2022-10-19T22:11:42.932Z,102107.56
2022-10-19T22:14:11.489Z,102107.28
2022-10-19T22:16:39.509Z,102107.56
2022-10-19T22:19:06.309Z,102109.88
2022-10-19T22:21:34.595Z,102108.75
2022-10-19T22:24:04.145Z,102105.09
2022-10-19T22:26:39.361Z,102100.63
2022-10-19T22:29:07.357Z,102099.16
2022-10-19T22:31:35.886Z,102099.78
2022-10-19T22:34:06.339Z,102101.28
2022-10-19T22:36:32.862Z,102088.50
2022-10-19T22:38:59.914Z,102080.06
2022-10-19T22:42:22.702Z,102071.28
2022-10-19T22:44:49.164Z,102054.84
2022-10-19T22:47:15.694Z,102058.50
2022-10-19T22:49:42.297Z,102049.22
2022-10-19T22:52:08.779Z,102057.00
2022-10-19T22:54:35.260Z,102058.00
2022-10-19T22:57:02.173Z,102049.88
2022-10-19T22:59:28.711Z,102040.06
2022-10-19T23:01:55.348Z,102027.66
2022-10-19T23:04:21.874Z,102032.28
2022-10-19T23:06:48.551Z,102041.59
2022-10-19T23:09:15.002Z,102034.59
2022-10-19T23:11:41.694Z,102027.66
2022-10-19T23:14:08.150Z,102022.53
2022-10-19T23:16:34.585Z,102020.72
2022-10-19T23:19:01.205Z,102019.19
2022-10-19T23:21:27.652Z,102020.03
2022-10-19T23:23:54.115Z,102031.78
2022-10-19T23:26:21.209Z,102033.28
2022-10-19T23:28:49.443Z,102034.94
2022-10-19T23:31:18.582Z,102023.84
2022-10-19T23:33:45.974Z,102016.38
2022-10-19T23:36:18.533Z,102026.00
2022-10-19T23:38:48.297Z,102029.13
2022-10-19T23:41:15.500Z,102038.94
2022-10-19T23:43:41.981Z,102035.94
2022-10-19T23:46:09.042Z,102033.81
2022-10-19T23:48:36.230Z,102031.16
2022-10-19T23:51:08.695Z,102032.47
2022-10-19T23:53:40.024Z,102026.00
2022-10-19T23:56:11.941Z,102015.75
2022-10-19T23:58:38.468Z,102014.56
